sensor_id;sensor_type;location;lat;lon;timestamp;P1;durP1;ratioP1;P2;durP2;ratioP2
43620;SDS011;29213;50.770;7.298;2022-08-01T00:01:32;2.00;;;0.93;;
43620;SDS011;29213;50.770;7.298;2022-08-01T00:03:57;2.90;;;1.00;;
43620;SDS011;29213;50.770;7.298;2022-08-01T00:06:23;2.15;;;1.00;;
43620;SDS011;29213;50.770;7.298;2022-08-01T00:08:48;2.85;;;1.00;;
43620;SDS011;29213;50.770;7.298;2022-08-01T00:11:14;3.08;;;0.85;;
43620;SDS011;29213;50.770;7.298;2022-08-01T00:13:39;1.98;;;0.98;;
43620;SDS011;29213;50.770;7.298;2022-08-01T00:16:05;1.55;;;0.88;;
43620;SDS011;29213;50.770;7.298;2022-08-01T00:18:30;1.55;;;1.00;;
43620;SDS011;29213;50.770;7.298;2022-08-01T00:20:56;2.40;;;0.93;;
43620;SDS011;29213;50.770;7.298;2022-08-01T00:23:21;2.35;;;1.10;;
43620;SDS011;29213;50.770;7.298;2022-08-01T00:25:46;3.28;;;1.20;;
43620;SDS011;29213;50.770;7.298;2022-08-01T00:28:12;3.45;;;1.20;;
43620;SDS011;29213;50.770;7.298;2022-08-01T00:30:38;2.08;;;0.90;;
43620;SDS011;29213;50.770;7.298;2022-08-01T00:33:04;3.42;;;1.10;;
43620;SDS011;29213;50.770;7.298;2022-08-01T00:35:29;2.67;;;1.20;;
43620;SDS011;29213;50.770;7.298;2022-08-01T00:37:55;3.40;;;1.20;;
43620;SDS011;29213;50.770;7.298;2022-08-01T00:40:20;2.40;;;1.10;;
43620;SDS011;29213;50.770;7.298;2022-08-01T00:42:46;2.65;;;0.90;;
43620;SDS011;29213;50.770;7.298;2022-08-01T00:45:11;3.85;;;1.30;;
43620;SDS011;29213;50.770;7.298;2022-08-01T00:47:37;2.22;;;1.00;;
43620;SDS011;29213;50.770;7.298;2022-08-01T00:50:04;2.63;;;1.30;;
43620;SDS011;29213;50.770;7.298;2022-08-01T00:52:30;3.00;;;1.10;;
43620;SDS011;29213;50.770;7.298;2022-08-01T00:54:56;3.00;;;1.33;;
43620;SDS011;29213;50.770;7.298;2022-08-01T00:57:21;3.45;;;1.30;;
43620;SDS011;29213;50.770;7.298;2022-08-01T00:59:47;1.92;;;0.98;;
43620;SDS011;29213;50.770;7.298;2022-08-01T01:02:12;2.58;;;1.17;;
43620;SDS011;29213;50.770;7.298;2022-08-01T01:04:38;2.08;;;1.00;;
43620;SDS011;29213;50.770;7.298;2022-08-01T01:07:06;2.70;;;1.23;;
43620;SDS011;29213;50.770;7.298;2022-08-01T01:09:58;2.10;;;1.08;;
43620;SDS011;29213;50.770;7.298;2022-08-01T01:18:20;2.70;;;1.00;;
43620;SDS011;29213;50.770;7.298;2022-08-01T01:20:57;2.83;;;1.25;;
43620;SDS011;29213;50.770;7.298;2022-08-01T01:26:43;3.60;;;1.20;;
43620;SDS011;29213;50.770;7.298;2022-08-01T01:29:17;2.67;;;1.23;;
43620;SDS011;29213;50.770;7.298;2022-08-01T01:32:13;3.60;;;1.45;;
43620;SDS011;29213;50.770;7.298;2022-08-01T01:34:43;3.70;;;1.40;;
43620;SDS011;29213;50.770;7.298;2022-08-01T01:37:12;3.85;;;1.40;;
43620;SDS011;29213;50.770;7.298;2022-08-01T01:39:41;2.97;;;1.30;;
43620;SDS011;29213;50.770;7.298;2022-08-01T01:42:07;2.97;;;1.27;;
43620;SDS011;29213;50.770;7.298;2022-08-01T01:44:34;2.22;;;1.10;;
43620;SDS011;29213;50.770;7.298;2022-08-01T01:47:01;2.90;;;1.42;;
43620;SDS011;29213;50.770;7.298;2022-08-01T01:49:27;2.70;;;1.30;;
43620;SDS011;29213;50.770;7.298;2022-08-01T01:51:56;3.20;;;1.20;;
43620;SDS011;29213;50.770;7.298;2022-08-01T01:54:23;2.80;;;1.30;;
43620;SDS011;29213;50.770;7.298;2022-08-01T01:56:53;4.68;;;1.58;;
43620;SDS011;29213;50.770;7.298;2022-08-01T01:59:24;4.13;;;1.65;;
43620;SDS011;29213;50.770;7.298;2022-08-01T02:01:52;3.60;;;1.52;;
43620;SDS011;29213;50.770;7.298;2022-08-01T02:04:20;2.63;;;1.27;;
43620;SDS011;29213;50.770;7.298;2022-08-01T02:06:48;2.95;;;1.30;;
43620;SDS011;29213;50.770;7.298;2022-08-01T02:09:17;3.75;;;1.58;;
43620;SDS011;29213;50.770;7.298;2022-08-01T02:11:45;3.92;;;1.65;;
43620;SDS011;29213;50.770;7.298;2022-08-01T02:14:12;3.75;;;2.00;;
43620;SDS011;29213;50.770;7.298;2022-08-01T02:16:39;3.17;;;1.95;;
43620;SDS011;29213;50.770;7.298;2022-08-01T02:19:06;3.97;;;2.25;;
43620;SDS011;29213;50.770;7.298;2022-08-01T02:21:34;3.60;;;2.10;;
43620;SDS011;29213;50.770;7.298;2022-08-01T02:24:09;3.55;;;2.00;;
43620;SDS011;29213;50.770;7.298;2022-08-01T02:26:40;3.72;;;1.88;;
43620;SDS011;29213;50.770;7.298;2022-08-01T02:29:09;3.25;;;1.73;;
43620;SDS011;29213;50.770;7.298;2022-08-01T02:31:39;3.20;;;1.95;;
43620;SDS011;29213;50.770;7.298;2022-08-01T02:34:09;4.47;;;2.00;;
43620;SDS011;29213;50.770;7.298;2022-08-01T02:36:40;4.20;;;1.98;;
43620;SDS011;29213;50.770;7.298;2022-08-01T02:39:10;4.22;;;2.55;;
43620;SDS011;29213;50.770;7.298;2022-08-01T02:41:43;3.25;;;2.15;;
43620;SDS011;29213;50.770;7.298;2022-08-01T02:44:14;4.35;;;2.20;;
43620;SDS011;29213;50.770;7.298;2022-08-01T02:46:49;3.88;;;2.25;;
43620;SDS011;29213;50.770;7.298;2022-08-01T02:49:18;3.97;;;1.92;;
43620;SDS011;29213;50.770;7.298;2022-08-01T02:51:46;3.58;;;1.83;;
43620;SDS011;29213;50.770;7.298;2022-08-01T02:54:13;3.30;;;1.92;;
43620;SDS011;29213;50.770;7.298;2022-08-01T02:56:40;3.35;;;1.90;;
43620;SDS011;29213;50.770;7.298;2022-08-01T02:59:08;2.75;;;1.70;;
43620;SDS011;29213;50.770;7.298;2022-08-01T03:01:37;2.67;;;1.60;;
43620;SDS011;29213;50.770;7.298;2022-08-01T03:04:05;2.78;;;1.50;;
43620;SDS011;29213;50.770;7.298;2022-08-01T03:06:32;3.42;;;1.40;;
43620;SDS011;29213;50.770;7.298;2022-08-01T03:09:02;3.03;;;1.50;;
43620;SDS011;29213;50.770;7.298;2022-08-01T03:11:29;2.45;;;1.52;;
43620;SDS011;29213;50.770;7.298;2022-08-01T03:13:58;3.13;;;1.45;;
43620;SDS011;29213;50.770;7.298;2022-08-01T03:16:26;3.40;;;1.70;;
43620;SDS011;29213;50.770;7.298;2022-08-01T03:18:53;3.47;;;1.50;;
43620;SDS011;29213;50.770;7.298;2022-08-01T03:21:21;2.87;;;1.50;;
43620;SDS011;29213;50.770;7.298;2022-08-01T03:23:49;3.60;;;1.73;;
43620;SDS011;29213;50.770;7.298;2022-08-01T03:26:18;2.75;;;1.50;;
43620;SDS011;29213;50.770;7.298;2022-08-01T03:28:44;3.20;;;1.42;;
43620;SDS011;29213;50.770;7.298;2022-08-01T03:31:12;3.65;;;1.70;;
43620;SDS011;29213;50.770;7.298;2022-08-01T03:33:39;4.70;;;1.50;;
43620;SDS011;29213;50.770;7.298;2022-08-01T03:36:05;2.75;;;1.50;;
43620;SDS011;29213;50.770;7.298;2022-08-01T03:38:34;3.25;;;1.52;;
43620;SDS011;29213;50.770;7.298;2022-08-01T03:41:02;4.60;;;1.73;;
43620;SDS011;29213;50.770;7.298;2022-08-01T03:43:36;3.83;;;1.60;;
43620;SDS011;29213;50.770;7.298;2022-08-01T03:46:07;3.05;;;1.60;;
43620;SDS011;29213;50.770;7.298;2022-08-01T03:48:37;4.20;;;1.60;;
43620;SDS011;29213;50.770;7.298;2022-08-01T03:51:08;3.42;;;1.60;;
43620;SDS011;29213;50.770;7.298;2022-08-01T03:53:35;4.43;;;1.92;;
43620;SDS011;29213;50.770;7.298;2022-08-01T03:56:02;3.20;;;1.77;;
43620;SDS011;29213;50.770;7.298;2022-08-01T03:58:29;3.90;;;1.70;;
43620;SDS011;29213;50.770;7.298;2022-08-01T04:00:55;2.95;;;1.52;;
43620;SDS011;29213;50.770;7.298;2022-08-01T04:03:21;3.45;;;1.75;;
43620;SDS011;29213;50.770;7.298;2022-08-01T04:05:47;3.70;;;1.98;;
43620;SDS011;29213;50.770;7.298;2022-08-01T04:08:12;4.22;;;1.95;;
43620;SDS011;29213;50.770;7.298;2022-08-01T04:10:38;2.75;;;1.60;;
43620;SDS011;29213;50.770;7.298;2022-08-01T04:13:03;2.97;;;1.70;;
43620;SDS011;29213;50.770;7.298;2022-08-01T04:15:29;3.55;;;1.88;;
43620;SDS011;29213;50.770;7.298;2022-08-01T04:17:54;3.85;;;1.83;;
43620;SDS011;29213;50.770;7.298;2022-08-01T04:20:20;3.63;;;1.80;;
43620;SDS011;29213;50.770;7.298;2022-08-01T04:22:46;2.97;;;1.70;;
43620;SDS011;29213;50.770;7.298;2022-08-01T04:28:02;3.95;;;2.08;;
43620;SDS011;29213;50.770;7.298;2022-08-01T04:30:33;4.28;;;1.88;;
43620;SDS011;29213;50.770;7.298;2022-08-01T04:33:01;3.40;;;1.88;;
43620;SDS011;29213;50.770;7.298;2022-08-01T04:35:30;3.90;;;1.80;;
43620;SDS011;29213;50.770;7.298;2022-08-01T04:37:58;2.97;;;1.80;;
43620;SDS011;29213;50.770;7.298;2022-08-01T04:40:26;3.72;;;1.77;;
43620;SDS011;29213;50.770;7.298;2022-08-01T04:42:53;3.10;;;1.85;;
43620;SDS011;29213;50.770;7.298;2022-08-01T04:45:18;4.50;;;2.05;;
43620;SDS011;29213;50.770;7.298;2022-08-01T04:47:46;4.10;;;2.28;;
43620;SDS011;29213;50.770;7.298;2022-08-01T04:50:13;4.15;;;2.40;;
43620;SDS011;29213;50.770;7.298;2022-08-01T04:52:39;5.95;;;2.38;;
43620;SDS011;29213;50.770;7.298;2022-08-01T04:55:07;4.68;;;2.40;;
43620;SDS011;29213;50.770;7.298;2022-08-01T04:57:35;3.58;;;1.90;;
43620;SDS011;29213;50.770;7.298;2022-08-01T05:00:02;4.10;;;2.00;;
43620;SDS011;29213;50.770;7.298;2022-08-01T05:02:28;5.05;;;2.40;;
43620;SDS011;29213;50.770;7.298;2022-08-01T05:04:54;3.58;;;2.00;;
43620;SDS011;29213;50.770;7.298;2022-08-01T05:07:20;3.63;;;2.13;;
43620;SDS011;29213;50.770;7.298;2022-08-01T05:09:46;4.10;;;2.25;;
43620;SDS011;29213;50.770;7.298;2022-08-01T05:12:11;4.00;;;2.30;;
43620;SDS011;29213;50.770;7.298;2022-08-01T05:14:37;3.60;;;2.30;;
43620;SDS011;29213;50.770;7.298;2022-08-01T05:17:05;4.50;;;2.47;;
43620;SDS011;29213;50.770;7.298;2022-08-01T05:19:32;4.45;;;2.30;;
43620;SDS011;29213;50.770;7.298;2022-08-01T05:21:59;4.65;;;2.53;;
43620;SDS011;29213;50.770;7.298;2022-08-01T05:24:28;5.07;;;2.90;;
43620;SDS011;29213;50.770;7.298;2022-08-01T05:26:54;4.57;;;2.67;;
43620;SDS011;29213;50.770;7.298;2022-08-01T05:29:20;5.88;;;3.05;;
43620;SDS011;29213;50.770;7.298;2022-08-01T05:31:46;5.30;;;2.75;;
43620;SDS011;29213;50.770;7.298;2022-08-01T05:34:11;5.50;;;3.38;;
43620;SDS011;29213;50.770;7.298;2022-08-01T05:36:37;4.93;;;3.10;;
43620;SDS011;29213;50.770;7.298;2022-08-01T05:39:03;4.13;;;2.70;;
43620;SDS011;29213;50.770;7.298;2022-08-01T05:41:29;4.18;;;2.60;;
43620;SDS011;29213;50.770;7.298;2022-08-01T05:43:55;5.78;;;2.70;;
43620;SDS011;29213;50.770;7.298;2022-08-01T05:46:20;5.68;;;2.90;;
43620;SDS011;29213;50.770;7.298;2022-08-01T05:48:45;4.93;;;3.20;;
43620;SDS011;29213;50.770;7.298;2022-08-01T05:51:11;5.50;;;3.60;;
43620;SDS011;29213;50.770;7.298;2022-08-01T05:53:36;5.90;;;3.35;;
43620;SDS011;29213;50.770;7.298;2022-08-01T05:56:02;5.70;;;3.47;;
43620;SDS011;29213;50.770;7.298;2022-08-01T05:58:27;7.05;;;3.88;;
43620;SDS011;29213;50.770;7.298;2022-08-01T06:00:53;6.78;;;5.00;;
43620;SDS011;29213;50.770;7.298;2022-08-01T06:03:18;7.55;;;5.45;;
43620;SDS011;29213;50.770;7.298;2022-08-01T06:05:44;8.15;;;6.15;;
43620;SDS011;29213;50.770;7.298;2022-08-01T06:08:09;8.27;;;6.32;;
43620;SDS011;29213;50.770;7.298;2022-08-01T06:10:35;7.57;;;5.72;;
43620;SDS011;29213;50.770;7.298;2022-08-01T06:13:00;8.10;;;6.13;;
43620;SDS011;29213;50.770;7.298;2022-08-01T06:15:31;7.70;;;6.18;;
43620;SDS011;29213;50.770;7.298;2022-08-01T06:20:22;7.68;;;6.43;;
43620;SDS011;29213;50.770;7.298;2022-08-01T06:22:48;8.70;;;7.28;;
43620;SDS011;29213;50.770;7.298;2022-08-01T06:25:13;7.57;;;6.22;;
43620;SDS011;29213;50.770;7.298;2022-08-01T06:27:38;9.65;;;5.97;;
43620;SDS011;29213;50.770;7.298;2022-08-01T06:30:04;6.18;;;5.43;;
43620;SDS011;29213;50.770;7.298;2022-08-01T06:32:32;7.07;;;5.63;;
43620;SDS011;29213;50.770;7.298;2022-08-01T06:34:58;8.85;;;6.60;;
43620;SDS011;29213;50.770;7.298;2022-08-01T06:37:23;6.90;;;5.75;;
43620;SDS011;29213;50.770;7.298;2022-08-01T06:39:49;8.35;;;6.07;;
43620;SDS011;29213;50.770;7.298;2022-08-01T06:42:14;7.50;;;6.70;;
43620;SDS011;29213;50.770;7.298;2022-08-01T06:44:40;8.98;;;6.82;;
43620;SDS011;29213;50.770;7.298;2022-08-01T06:47:06;9.25;;;6.93;;
43620;SDS011;29213;50.770;7.298;2022-08-01T06:49:31;7.78;;;6.13;;
43620;SDS011;29213;50.770;7.298;2022-08-01T06:51:57;9.18;;;6.97;;
43620;SDS011;29213;50.770;7.298;2022-08-01T06:54:22;10.25;;;6.50;;
43620;SDS011;29213;50.770;7.298;2022-08-01T06:56:47;8.05;;;6.57;;
43620;SDS011;29213;50.770;7.298;2022-08-01T06:59:14;7.00;;;5.65;;
43620;SDS011;29213;50.770;7.298;2022-08-01T07:01:39;7.45;;;6.28;;
43620;SDS011;29213;50.770;7.298;2022-08-01T07:04:05;6.93;;;5.40;;
43620;SDS011;29213;50.770;7.298;2022-08-01T07:06:31;6.82;;;5.22;;
43620;SDS011;29213;50.770;7.298;2022-08-01T07:08:56;5.57;;;4.97;;
43620;SDS011;29213;50.770;7.298;2022-08-01T07:11:23;5.60;;;4.18;;
43620;SDS011;29213;50.770;7.298;2022-08-01T07:13:48;6.45;;;4.90;;
43620;SDS011;29213;50.770;7.298;2022-08-01T07:16:26;7.05;;;4.82;;
43620;SDS011;29213;50.770;7.298;2022-08-01T07:18:51;7.40;;;5.03;;
43620;SDS011;29213;50.770;7.298;2022-08-01T07:21:17;5.45;;;4.93;;
43620;SDS011;29213;50.770;7.298;2022-08-01T07:23:42;7.78;;;5.38;;
43620;SDS011;29213;50.770;7.298;2022-08-01T07:26:08;5.97;;;4.82;;
43620;SDS011;29213;50.770;7.298;2022-08-01T07:28:33;6.28;;;4.40;;
43620;SDS011;29213;50.770;7.298;2022-08-01T07:30:59;4.70;;;4.18;;
43620;SDS011;29213;50.770;7.298;2022-08-01T07:33:24;4.85;;;4.20;;
43620;SDS011;29213;50.770;7.298;2022-08-01T07:35:51;5.78;;;4.57;;
43620;SDS011;29213;50.770;7.298;2022-08-01T07:38:16;6.85;;;5.53;;
43620;SDS011;29213;50.770;7.298;2022-08-01T07:40:42;6.72;;;5.32;;
43620;SDS011;29213;50.770;7.298;2022-08-01T07:43:09;6.20;;;4.95;;
43620;SDS011;29213;50.770;7.298;2022-08-01T07:45:34;6.30;;;4.85;;
43620;SDS011;29213;50.770;7.298;2022-08-01T07:48:03;6.43;;;4.97;;
43620;SDS011;29213;50.770;7.298;2022-08-01T07:50:29;6.55;;;4.20;;
43620;SDS011;29213;50.770;7.298;2022-08-01T07:52:55;7.15;;;4.70;;
43620;SDS011;29213;50.770;7.298;2022-08-01T07:55:20;6.38;;;5.00;;
43620;SDS011;29213;50.770;7.298;2022-08-01T07:57:46;5.13;;;4.05;;
43620;SDS011;29213;50.770;7.298;2022-08-01T08:00:12;7.30;;;5.25;;
43620;SDS011;29213;50.770;7.298;2022-08-01T08:02:38;6.15;;;4.72;;
43620;SDS011;29213;50.770;7.298;2022-08-01T08:05:03;5.90;;;5.03;;
43620;SDS011;29213;50.770;7.298;2022-08-01T08:07:29;5.25;;;4.40;;
43620;SDS011;29213;50.770;7.298;2022-08-01T08:09:55;6.07;;;4.53;;
43620;SDS011;29213;50.770;7.298;2022-08-01T08:12:21;5.35;;;4.38;;
43620;SDS011;29213;50.770;7.298;2022-08-01T08:14:46;5.20;;;4.13;;
43620;SDS011;29213;50.770;7.298;2022-08-01T08:17:12;8.80;;;6.88;;
43620;SDS011;29213;50.770;7.298;2022-08-01T08:19:37;6.18;;;4.90;;
43620;SDS011;29213;50.770;7.298;2022-08-01T08:22:04;5.40;;;3.70;;
43620;SDS011;29213;50.770;7.298;2022-08-01T08:24:31;6.70;;;4.18;;
43620;SDS011;29213;50.770;7.298;2022-08-01T08:26:58;5.30;;;3.90;;
43620;SDS011;29213;50.770;7.298;2022-08-01T08:29:25;5.55;;;4.25;;
43620;SDS011;29213;50.770;7.298;2022-08-01T08:31:52;6.63;;;4.47;;
43620;SDS011;29213;50.770;7.298;2022-08-01T08:34:19;4.57;;;3.55;;
43620;SDS011;29213;50.770;7.298;2022-08-01T08:36:45;6.03;;;4.38;;
43620;SDS011;29213;50.770;7.298;2022-08-01T08:39:11;5.78;;;3.90;;
43620;SDS011;29213;50.770;7.298;2022-08-01T08:41:37;5.90;;;3.83;;
43620;SDS011;29213;50.770;7.298;2022-08-01T08:44:03;5.07;;;3.83;;
43620;SDS011;29213;50.770;7.298;2022-08-01T08:46:32;5.07;;;3.65;;
43620;SDS011;29213;50.770;7.298;2022-08-01T08:48:58;7.43;;;4.13;;
43620;SDS011;29213;50.770;7.298;2022-08-01T08:51:25;6.68;;;3.90;;
43620;SDS011;29213;50.770;7.298;2022-08-01T08:53:53;5.28;;;3.83;;
43620;SDS011;29213;50.770;7.298;2022-08-01T08:56:21;5.13;;;3.70;;
43620;SDS011;29213;50.770;7.298;2022-08-01T08:58:49;4.95;;;3.78;;
43620;SDS011;29213;50.770;7.298;2022-08-01T09:01:15;6.10;;;3.78;;
43620;SDS011;29213;50.770;7.298;2022-08-01T09:03:42;5.50;;;4.28;;
43620;SDS011;29213;50.770;7.298;2022-08-01T09:06:09;6.35;;;4.60;;
43620;SDS011;29213;50.770;7.298;2022-08-01T09:08:35;5.13;;;3.92;;
43620;SDS011;29213;50.770;7.298;2022-08-01T09:11:00;6.45;;;4.13;;
43620;SDS011;29213;50.770;7.298;2022-08-01T09:13:26;4.82;;;3.88;;
43620;SDS011;29213;50.770;7.298;2022-08-01T09:15:52;7.40;;;4.07;;
43620;SDS011;29213;50.770;7.298;2022-08-01T09:28:55;4.97;;;4.20;;
43620;SDS011;29213;50.770;7.298;2022-08-01T09:31:21;4.57;;;3.70;;
43620;SDS011;29213;50.770;7.298;2022-08-01T09:33:50;6.10;;;4.20;;
43620;SDS011;29213;50.770;7.298;2022-08-01T09:36:19;5.30;;;4.30;;
43620;SDS011;29213;50.770;7.298;2022-08-01T09:38:46;5.65;;;4.20;;
43620;SDS011;29213;50.770;7.298;2022-08-01T09:41:14;5.38;;;4.40;;
43620;SDS011;29213;50.770;7.298;2022-08-01T09:43:49;4.90;;;4.00;;
43620;SDS011;29213;50.770;7.298;2022-08-01T09:46:15;5.22;;;4.03;;
43620;SDS011;29213;50.770;7.298;2022-08-01T09:51:29;4.80;;;4.30;;
43620;SDS011;29213;50.770;7.298;2022-08-01T09:53:59;5.90;;;4.60;;
43620;SDS011;29213;50.770;7.298;2022-08-01T09:56:25;5.10;;;4.28;;
43620;SDS011;29213;50.770;7.298;2022-08-01T09:58:57;5.05;;;3.97;;
43620;SDS011;29213;50.770;7.298;2022-08-01T10:01:24;5.57;;;3.80;;
43620;SDS011;29213;50.770;7.298;2022-08-01T10:06:37;5.57;;;3.97;;
43620;SDS011;29213;50.770;7.298;2022-08-01T10:09:05;5.25;;;3.97;;
43620;SDS011;29213;50.770;7.298;2022-08-01T10:11:31;5.75;;;3.97;;
43620;SDS011;29213;50.770;7.298;2022-08-01T10:14:00;6.38;;;4.00;;
43620;SDS011;29213;50.770;7.298;2022-08-01T10:16:30;4.90;;;3.88;;
43620;SDS011;29213;50.770;7.298;2022-08-01T10:19:03;5.93;;;4.03;;
43620;SDS011;29213;50.770;7.298;2022-08-01T10:22:47;4.03;;;3.45;;
43620;SDS011;29213;50.770;7.298;2022-08-01T10:25:43;4.50;;;3.20;;
43620;SDS011;29213;50.770;7.298;2022-08-01T10:45:05;4.82;;;3.17;;
43620;SDS011;29213;50.770;7.298;2022-08-01T10:47:37;4.18;;;3.20;;
43620;SDS011;29213;50.770;7.298;2022-08-01T10:50:21;4.25;;;2.92;;
43620;SDS011;29213;50.770;7.298;2022-08-01T10:55:58;4.28;;;3.30;;
43620;SDS011;29213;50.770;7.298;2022-08-01T10:58:29;5.13;;;3.30;;
43620;SDS011;29213;50.770;7.298;2022-08-01T11:01:21;4.13;;;3.05;;
43620;SDS011;29213;50.770;7.298;2022-08-01T11:08:57;4.15;;;2.53;;
43620;SDS011;29213;50.770;7.298;2022-08-01T11:11:23;6.35;;;3.42;;
43620;SDS011;29213;50.770;7.298;2022-08-01T11:14:03;4.47;;;3.15;;
43620;SDS011;29213;50.770;7.298;2022-08-01T11:16:33;4.05;;;2.67;;
43620;SDS011;29213;50.770;7.298;2022-08-01T11:19:00;4.03;;;3.00;;
43620;SDS011;29213;50.770;7.298;2022-08-01T11:27:32;3.92;;;2.70;;
43620;SDS011;29213;50.770;7.298;2022-08-01T11:32:50;4.00;;;3.08;;
43620;SDS011;29213;50.770;7.298;2022-08-01T11:35:16;3.92;;;2.60;;
43620;SDS011;29213;50.770;7.298;2022-08-01T11:37:43;3.47;;;2.42;;
43620;SDS011;29213;50.770;7.298;2022-08-01T11:40:24;4.40;;;3.00;;
43620;SDS011;29213;50.770;7.298;2022-08-01T11:49:48;3.72;;;2.50;;
43620;SDS011;29213;50.770;7.298;2022-08-01T12:02:39;3.53;;;2.28;;
43620;SDS011;29213;50.770;7.298;2022-08-01T12:05:05;3.13;;;2.10;;
43620;SDS011;29213;50.770;7.298;2022-08-01T12:07:34;3.80;;;2.60;;
43620;SDS011;29213;50.770;7.298;2022-08-01T12:12:30;3.65;;;3.05;;
43620;SDS011;29213;50.770;7.298;2022-08-01T12:14:58;3.97;;;2.75;;
43620;SDS011;29213;50.770;7.298;2022-08-01T12:17:44;4.03;;;2.97;;
43620;SDS011;29213;50.770;7.298;2022-08-01T12:20:15;4.38;;;3.20;;
43620;SDS011;29213;50.770;7.298;2022-08-01T12:22:44;5.88;;;2.80;;
43620;SDS011;29213;50.770;7.298;2022-08-01T12:25:17;3.60;;;2.80;;
43620;SDS011;29213;50.770;7.298;2022-08-01T12:27:44;3.53;;;2.50;;
43620;SDS011;29213;50.770;7.298;2022-08-01T12:30:11;3.33;;;2.42;;
43620;SDS011;29213;50.770;7.298;2022-08-01T12:32:39;3.67;;;2.30;;
43620;SDS011;29213;50.770;7.298;2022-08-01T12:35:06;4.65;;;2.88;;
43620;SDS011;29213;50.770;7.298;2022-08-01T12:37:37;4.00;;;3.40;;
43620;SDS011;29213;50.770;7.298;2022-08-01T12:40:10;3.92;;;2.75;;
43620;SDS011;29213;50.770;7.298;2022-08-01T12:42:39;6.90;;;6.20;;
43620;SDS011;29213;50.770;7.298;2022-08-01T12:45:07;8.70;;;6.75;;
43620;SDS011;29213;50.770;7.298;2022-08-01T12:47:34;5.13;;;3.70;;
43620;SDS011;29213;50.770;7.298;2022-08-01T12:50:02;3.33;;;2.20;;
43620;SDS011;29213;50.770;7.298;2022-08-01T12:52:31;3.20;;;2.08;;
43620;SDS011;29213;50.770;7.298;2022-08-01T12:57:46;3.60;;;2.20;;
43620;SDS011;29213;50.770;7.298;2022-08-01T13:00:23;4.45;;;2.60;;
43620;SDS011;29213;50.770;7.298;2022-08-01T13:03:04;3.60;;;2.20;;
43620;SDS011;29213;50.770;7.298;2022-08-01T13:05:44;4.97;;;2.20;;
43620;SDS011;29213;50.770;7.298;2022-08-01T13:08:11;3.95;;;2.55;;
43620;SDS011;29213;50.770;7.298;2022-08-01T13:10:38;4.28;;;2.53;;
43620;SDS011;29213;50.770;7.298;2022-08-01T13:13:05;3.92;;;2.53;;
43620;SDS011;29213;50.770;7.298;2022-08-01T13:15:32;3.88;;;2.60;;
43620;SDS011;29213;50.770;7.298;2022-08-01T13:18:00;3.85;;;2.30;;
43620;SDS011;29213;50.770;7.298;2022-08-01T13:20:46;10.93;;;2.40;;
43620;SDS011;29213;50.770;7.298;2022-08-01T13:23:16;3.17;;;2.00;;
43620;SDS011;29213;50.770;7.298;2022-08-01T13:25:50;4.13;;;2.60;;
43620;SDS011;29213;50.770;7.298;2022-08-01T13:28:21;3.22;;;2.20;;
43620;SDS011;29213;50.770;7.298;2022-08-01T13:30:52;3.47;;;2.17;;
43620;SDS011;29213;50.770;7.298;2022-08-01T13:33:22;4.28;;;2.30;;
43620;SDS011;29213;50.770;7.298;2022-08-01T13:35:52;4.18;;;2.20;;
43620;SDS011;29213;50.770;7.298;2022-08-01T13:38:19;4.15;;;2.88;;
43620;SDS011;29213;50.770;7.298;2022-08-01T13:40:45;3.75;;;2.10;;
43620;SDS011;29213;50.770;7.298;2022-08-01T13:43:10;3.67;;;2.00;;
43620;SDS011;29213;50.770;7.298;2022-08-01T13:45:36;2.55;;;1.65;;
43620;SDS011;29213;50.770;7.298;2022-08-01T13:48:01;4.93;;;2.38;;
43620;SDS011;29213;50.770;7.298;2022-08-01T13:50:27;3.47;;;2.20;;
43620;SDS011;29213;50.770;7.298;2022-08-01T13:52:53;4.25;;;2.30;;
43620;SDS011;29213;50.770;7.298;2022-08-01T13:55:21;3.95;;;2.25;;
43620;SDS011;29213;50.770;7.298;2022-08-01T13:57:46;3.72;;;2.50;;
43620;SDS011;29213;50.770;7.298;2022-08-01T14:00:12;3.40;;;2.00;;
43620;SDS011;29213;50.770;7.298;2022-08-01T14:02:37;4.43;;;2.38;;
43620;SDS011;29213;50.770;7.298;2022-08-01T14:05:03;3.03;;;2.00;;
43620;SDS011;29213;50.770;7.298;2022-08-01T14:07:29;3.35;;;2.10;;
43620;SDS011;29213;50.770;7.298;2022-08-01T14:09:54;3.97;;;2.30;;
43620;SDS011;29213;50.770;7.298;2022-08-01T14:12:20;3.53;;;2.15;;
43620;SDS011;29213;50.770;7.298;2022-08-01T14:14:45;3.30;;;1.92;;
43620;SDS011;29213;50.770;7.298;2022-08-01T14:17:10;3.00;;;1.80;;
43620;SDS011;29213;50.770;7.298;2022-08-01T14:19:36;4.90;;;2.30;;
43620;SDS011;29213;50.770;7.298;2022-08-01T14:22:01;3.40;;;2.10;;
43620;SDS011;29213;50.770;7.298;2022-08-01T14:24:27;4.35;;;2.03;;
43620;SDS011;29213;50.770;7.298;2022-08-01T14:26:53;3.85;;;2.53;;
43620;SDS011;29213;50.770;7.298;2022-08-01T14:29:18;3.47;;;2.35;;
43620;SDS011;29213;50.770;7.298;2022-08-01T14:31:44;3.70;;;2.47;;
43620;SDS011;29213;50.770;7.298;2022-08-01T14:34:09;3.75;;;2.13;;
43620;SDS011;29213;50.770;7.298;2022-08-01T14:36:34;3.13;;;1.88;;
43620;SDS011;29213;50.770;7.298;2022-08-01T14:39:00;3.00;;;1.90;;
43620;SDS011;29213;50.770;7.298;2022-08-01T14:41:26;3.60;;;1.90;;
43620;SDS011;29213;50.770;7.298;2022-08-01T14:43:52;2.90;;;1.90;;
43620;SDS011;29213;50.770;7.298;2022-08-01T14:46:17;2.67;;;1.58;;
43620;SDS011;29213;50.770;7.298;2022-08-01T14:48:43;2.70;;;1.50;;
43620;SDS011;29213;50.770;7.298;2022-08-01T14:51:08;2.95;;;1.60;;
43620;SDS011;29213;50.770;7.298;2022-08-01T14:53:34;4.63;;;2.00;;
43620;SDS011;29213;50.770;7.298;2022-08-01T14:56:05;3.30;;;1.90;;
43620;SDS011;29213;50.770;7.298;2022-08-01T14:58:31;3.17;;;1.73;;
43620;SDS011;29213;50.770;7.298;2022-08-01T15:00:57;2.92;;;1.60;;
43620;SDS011;29213;50.770;7.298;2022-08-01T15:03:23;2.33;;;1.40;;
43620;SDS011;29213;50.770;7.298;2022-08-01T15:05:48;2.53;;;1.33;;
43620;SDS011;29213;50.770;7.298;2022-08-01T15:08:13;3.20;;;1.50;;
43620;SDS011;29213;50.770;7.298;2022-08-01T15:10:39;2.53;;;1.48;;
43620;SDS011;29213;50.770;7.298;2022-08-01T15:13:05;3.20;;;1.50;;
43620;SDS011;29213;50.770;7.298;2022-08-01T15:15:30;2.78;;;1.40;;
43620;SDS011;29213;50.770;7.298;2022-08-01T15:17:56;2.70;;;1.50;;
43620;SDS011;29213;50.770;7.298;2022-08-01T15:20:22;2.35;;;1.40;;
43620;SDS011;29213;50.770;7.298;2022-08-01T15:22:47;2.33;;;1.30;;
43620;SDS011;29213;50.770;7.298;2022-08-01T15:25:13;2.40;;;1.30;;
43620;SDS011;29213;50.770;7.298;2022-08-01T15:27:38;2.65;;;1.20;;
43620;SDS011;29213;50.770;7.298;2022-08-01T15:30:04;2.40;;;1.30;;
43620;SDS011;29213;50.770;7.298;2022-08-01T15:32:30;2.53;;;1.38;;
43620;SDS011;29213;50.770;7.298;2022-08-01T15:34:55;2.60;;;1.30;;
43620;SDS011;29213;50.770;7.298;2022-08-01T15:37:21;2.20;;;1.20;;
43620;SDS011;29213;50.770;7.298;2022-08-01T15:39:46;2.15;;;1.20;;
43620;SDS011;29213;50.770;7.298;2022-08-01T15:42:13;2.45;;;1.30;;
43620;SDS011;29213;50.770;7.298;2022-08-01T15:44:40;3.73;;;1.33;;
43620;SDS011;29213;50.770;7.298;2022-08-01T15:47:06;2.58;;;1.20;;
43620;SDS011;29213;50.770;7.298;2022-08-01T15:49:33;2.30;;;1.08;;
43620;SDS011;29213;50.770;7.298;2022-08-01T15:52:01;2.67;;;1.30;;
43620;SDS011;29213;50.770;7.298;2022-08-01T15:54:27;2.75;;;1.30;;
43620;SDS011;29213;50.770;7.298;2022-08-01T15:56:52;2.70;;;1.35;;
43620;SDS011;29213;50.770;7.298;2022-08-01T15:59:18;1.95;;;1.00;;
43620;SDS011;29213;50.770;7.298;2022-08-01T16:01:43;2.60;;;1.23;;
43620;SDS011;29213;50.770;7.298;2022-08-01T16:04:08;3.33;;;1.50;;
43620;SDS011;29213;50.770;7.298;2022-08-01T16:06:34;2.83;;;1.33;;
43620;SDS011;29213;50.770;7.298;2022-08-01T16:09:01;2.85;;;1.23;;
43620;SDS011;29213;50.770;7.298;2022-08-01T16:11:28;2.33;;;1.20;;
43620;SDS011;29213;50.770;7.298;2022-08-01T16:13:53;2.20;;;1.20;;
43620;SDS011;29213;50.770;7.298;2022-08-01T16:16:19;2.45;;;1.10;;
43620;SDS011;29213;50.770;7.298;2022-08-01T16:18:45;1.50;;;0.90;;